sensor_id;sensor_type;location;lat;lon;timestamp;temperature;humidity
17887;DHT22;9069;52.044;7.472;2023-04-09T00:00:11;12.00;95.40
17887;DHT22;9069;52.044;7.472;2023-04-09T00:02:38;12.00;95.40
17887;DHT22;9069;52.044;7.472;2023-04-09T00:05:06;12.00;95.40
17887;DHT22;9069;52.044;7.472;2023-04-09T00:07:33;11.90;95.40
17887;DHT22;9069;52.044;7.472;2023-04-09T00:10:00;11.90;95.50
17887;DHT22;9069;52.044;7.472;2023-04-09T00:12:27;11.90;95.60
17887;DHT22;9069;52.044;7.472;2023-04-09T00:14:56;11.90;95.60
17887;DHT22;9069;52.044;7.472;2023-04-09T00:17:23;11.80;95.60
17887;DHT22;9069;52.044;7.472;2023-04-09T00:19:49;11.80;95.60
17887;DHT22;9069;52.044;7.472;2023-04-09T00:22:16;11.80;95.60
17887;DHT22;9069;52.044;7.472;2023-04-09T00:24:43;11.80;95.60
17887;DHT22;9069;52.044;7.472;2023-04-09T00:27:09;11.80;95.60
17887;DHT22;9069;52.044;7.472;2023-04-09T00:29:36;11.70;95.60
17887;DHT22;9069;52.044;7.472;2023-04-09T00:32:03;11.70;95.50
17887;DHT22;9069;52.044;7.472;2023-04-09T00:34:30;11.70;95.50
17887;DHT22;9069;52.044;7.472;2023-04-09T00:36:56;11.60;95.50
17887;DHT22;9069;52.044;7.472;2023-04-09T00:39:23;11.60;95.40
17887;DHT22;9069;52.044;7.472;2023-04-09T00:41:55;11.60;95.40
17887;DHT22;9069;52.044;7.472;2023-04-09T00:44:22;11.50;95.30
17887;DHT22;9069;52.044;7.472;2023-04-09T00:46:49;11.50;95.30
17887;DHT22;9069;52.044;7.472;2023-04-09T00:49:16;11.40;95.30
17887;DHT22;9069;52.044;7.472;2023-04-09T00:51:44;11.40;95.30
17887;DHT22;9069;52.044;7.472;2023-04-09T00:54:11;11.40;95.30
17887;DHT22;9069;52.044;7.472;2023-04-09T00:56:39;11.30;95.30
17887;DHT22;9069;52.044;7.472;2023-04-09T00:59:07;11.30;95.30
17887;DHT22;9069;52.044;7.472;2023-04-09T01:01:34;11.30;95.30
17887;DHT22;9069;52.044;7.472;2023-04-09T01:04:02;11.20;95.30
17887;DHT22;9069;52.044;7.472;2023-04-09T01:06:38;11.20;95.30
17887;DHT22;9069;52.044;7.472;2023-04-09T01:09:40;11.20;95.20
17887;DHT22;9069;52.044;7.472;2023-04-09T01:18:03;11.10;95.10
17887;DHT22;9069;52.044;7.472;2023-04-09T01:20:41;11.00;95.10
17887;DHT22;9069;52.044;7.472;2023-04-09T01:23:21;11.00;95.10
17887;DHT22;9069;52.044;7.472;2023-04-09T01:26:37;11.00;95.10
17887;DHT22;9069;52.044;7.472;2023-04-09T01:29:07;10.90;95.00
17887;DHT22;9069;52.044;7.472;2023-04-09T01:31:37;10.90;95.00
17887;DHT22;9069;52.044;7.472;2023-04-09T01:34:05;10.80;94.90
17887;DHT22;9069;52.044;7.472;2023-04-09T01:36:33;10.80;94.80
17887;DHT22;9069;52.044;7.472;2023-04-09T01:39:01;10.80;94.80
17887;DHT22;9069;52.044;7.472;2023-04-09T01:41:30;10.70;94.90
17887;DHT22;9069;52.044;7.472;2023-04-09T01:43:59;10.70;95.00
17887;DHT22;9069;52.044;7.472;2023-04-09T01:46:28;10.60;95.10
17887;DHT22;9069;52.044;7.472;2023-04-09T01:48:56;10.60;95.20
17887;DHT22;9069;52.044;7.472;2023-04-09T01:51:23;10.60;95.30
17887;DHT22;9069;52.044;7.472;2023-04-09T01:53:50;10.60;95.30
17887;DHT22;9069;52.044;7.472;2023-04-09T01:56:17;10.60;95.30
17887;DHT22;9069;52.044;7.472;2023-04-09T01:58:43;10.50;95.40
17887;DHT22;9069;52.044;7.472;2023-04-09T02:01:19;10.50;95.40
17887;DHT22;9069;52.044;7.472;2023-04-09T02:03:54;10.50;95.50
17887;DHT22;9069;52.044;7.472;2023-04-09T02:09:08;10.40;95.50
17887;DHT22;9069;52.044;7.472;2023-04-09T02:11:41;10.40;95.50
17887;DHT22;9069;52.044;7.472;2023-04-09T02:14:09;10.40;95.60
17887;DHT22;9069;52.044;7.472;2023-04-09T02:16:38;10.30;95.60
17887;DHT22;9069;52.044;7.472;2023-04-09T02:19:05;10.30;95.60
17887;DHT22;9069;52.044;7.472;2023-04-09T02:21:31;10.30;95.70
17887;DHT22;9069;52.044;7.472;2023-04-09T02:23:58;10.30;95.70
17887;DHT22;9069;52.044;7.472;2023-04-09T02:26:25;10.30;95.70
17887;DHT22;9069;52.044;7.472;2023-04-09T02:28:51;10.20;95.70
17887;DHT22;9069;52.044;7.472;2023-04-09T02:31:19;10.20;95.80
17887;DHT22;9069;52.044;7.472;2023-04-09T02:33:46;10.20;95.80
17887;DHT22;9069;52.044;7.472;2023-04-09T02:36:12;10.10;95.80
17887;DHT22;9069;52.044;7.472;2023-04-09T02:38:40;10.10;95.80
17887;DHT22;9069;52.044;7.472;2023-04-09T02:41:08;10.10;95.80
17887;DHT22;9069;52.044;7.472;2023-04-09T02:43:35;10.10;95.90
17887;DHT22;9069;52.044;7.472;2023-04-09T02:46:02;10.00;95.90
17887;DHT22;9069;52.044;7.472;2023-04-09T02:48:29;10.00;95.90
17887;DHT22;9069;52.044;7.472;2023-04-09T02:50:56;10.00;95.90
17887;DHT22;9069;52.044;7.472;2023-04-09T02:53:23;10.00;96.00
17887;DHT22;9069;52.044;7.472;2023-04-09T02:55:50;10.00;96.00
17887;DHT22;9069;52.044;7.472;2023-04-09T02:58:17;10.00;96.00
17887;DHT22;9069;52.044;7.472;2023-04-09T03:00:44;9.90;96.00
17887;DHT22;9069;52.044;7.472;2023-04-09T03:03:10;9.90;96.00
17887;DHT22;9069;52.044;7.472;2023-04-09T03:05:37;9.90;96.10
17887;DHT22;9069;52.044;7.472;2023-04-09T03:08:04;9.80;96.10
17887;DHT22;9069;52.044;7.472;2023-04-09T03:10:31;9.80;96.10
17887;DHT22;9069;52.044;7.472;2023-04-09T03:12:58;9.80;96.10
17887;DHT22;9069;52.044;7.472;2023-04-09T03:15:24;9.80;96.20
17887;DHT22;9069;52.044;7.472;2023-04-09T03:17:51;9.70;96.20
17887;DHT22;9069;52.044;7.472;2023-04-09T03:20:19;9.70;96.30
17887;DHT22;9069;52.044;7.472;2023-04-09T03:22:46;9.70;96.30
17887;DHT22;9069;52.044;7.472;2023-04-09T03:25:21;9.70;96.40
17887;DHT22;9069;52.044;7.472;2023-04-09T03:27:52;9.60;96.40
17887;DHT22;9069;52.044;7.472;2023-04-09T03:30:29;9.60;96.40
17887;DHT22;9069;52.044;7.472;2023-04-09T03:32:58;9.60;96.40
17887;DHT22;9069;52.044;7.472;2023-04-09T03:35:27;9.60;96.50
17887;DHT22;9069;52.044;7.472;2023-04-09T03:37:57;9.50;96.50
17887;DHT22;9069;52.044;7.472;2023-04-09T03:40:24;9.50;96.50
17887;DHT22;9069;52.044;7.472;2023-04-09T03:42:51;9.50;96.60
17887;DHT22;9069;52.044;7.472;2023-04-09T03:45:17;9.50;96.60
17887;DHT22;9069;52.044;7.472;2023-04-09T03:47:47;9.40;96.60
17887;DHT22;9069;52.044;7.472;2023-04-09T03:50:15;9.40;96.50
17887;DHT22;9069;52.044;7.472;2023-04-09T03:52:51;9.40;96.60
17887;DHT22;9069;52.044;7.472;2023-04-09T03:55:18;9.40;96.60
17887;DHT22;9069;52.044;7.472;2023-04-09T03:57:46;9.30;96.60
17887;DHT22;9069;52.044;7.472;2023-04-09T04:00:17;9.30;96.70
17887;DHT22;9069;52.044;7.472;2023-04-09T04:02:50;9.30;96.70
17887;DHT22;9069;52.044;7.472;2023-04-09T04:05:32;9.30;96.80
17887;DHT22;9069;52.044;7.472;2023-04-09T04:08:04;9.30;96.80
17887;DHT22;9069;52.044;7.472;2023-04-09T04:10:33;9.20;96.80
17887;DHT22;9069;52.044;7.472;2023-04-09T04:13:00;9.20;96.80
17887;DHT22;9069;52.044;7.472;2023-04-09T04:15:39;9.20;96.80
17887;DHT22;9069;52.044;7.472;2023-04-09T04:18:09;9.20;96.90
17887;DHT22;9069;52.044;7.472;2023-04-09T04:20:41;9.10;96.80
17887;DHT22;9069;52.044;7.472;2023-04-09T04:23:11;9.10;96.80
17887;DHT22;9069;52.044;7.472;2023-04-09T04:25:47;9.10;96.90
17887;DHT22;9069;52.044;7.472;2023-04-09T04:28:22;9.10;96.90
17887;DHT22;9069;52.044;7.472;2023-04-09T04:30:49;9.00;96.90
17887;DHT22;9069;52.044;7.472;2023-04-09T04:33:15;9.00;96.90
17887;DHT22;9069;52.044;7.472;2023-04-09T04:35:47;9.00;96.90
17887;DHT22;9069;52.044;7.472;2023-04-09T04:38:33;9.00;97.00
17887;DHT22;9069;52.044;7.472;2023-04-09T04:41:04;9.00;97.00
17887;DHT22;9069;52.044;7.472;2023-04-09T04:43:35;9.00;97.10
17887;DHT22;9069;52.044;7.472;2023-04-09T04:46:02;9.00;97.40
17887;DHT22;9069;52.044;7.472;2023-04-09T04:48:30;9.00;97.00
17887;DHT22;9069;52.044;7.472;2023-04-09T04:50:59;8.90;97.10
17887;DHT22;9069;52.044;7.472;2023-04-09T04:53:32;8.90;97.10
17887;DHT22;9069;52.044;7.472;2023-04-09T04:56:11;8.90;97.10
17887;DHT22;9069;52.044;7.472;2023-04-09T04:58:42;8.90;97.20
17887;DHT22;9069;52.044;7.472;2023-04-09T05:01:09;8.90;97.20
17887;DHT22;9069;52.044;7.472;2023-04-09T05:03:36;8.90;97.20
17887;DHT22;9069;52.044;7.472;2023-04-09T05:06:23;8.80;97.20
17887;DHT22;9069;52.044;7.472;2023-04-09T05:08:49;8.80;97.30
17887;DHT22;9069;52.044;7.472;2023-04-09T05:11:17;8.80;97.30
17887;DHT22;9069;52.044;7.472;2023-04-09T05:13:46;8.80;97.40
17887;DHT22;9069;52.044;7.472;2023-04-09T05:16:17;8.80;97.40
17887;DHT22;9069;52.044;7.472;2023-04-09T05:18:48;8.80;97.60
17887;DHT22;9069;52.044;7.472;2023-04-09T05:21:15;8.80;97.50
17887;DHT22;9069;52.044;7.472;2023-04-09T05:23:44;8.80;97.60
17887;DHT22;9069;52.044;7.472;2023-04-09T05:26:11;8.80;97.60
17887;DHT22;9069;52.044;7.472;2023-04-09T05:28:47;8.80;97.60
17887;DHT22;9069;52.044;7.472;2023-04-09T05:31:17;8.80;97.70
17887;DHT22;9069;52.044;7.472;2023-04-09T05:33:52;8.80;97.80
17887;DHT22;9069;52.044;7.472;2023-04-09T05:36:23;8.80;97.80
17887;DHT22;9069;52.044;7.472;2023-04-09T05:38:51;8.80;97.80
17887;DHT22;9069;52.044;7.472;2023-04-09T05:41:18;8.80;97.90
17887;DHT22;9069;52.044;7.472;2023-04-09T05:44:01;8.80;98.00
17887;DHT22;9069;52.044;7.472;2023-04-09T05:46:28;8.80;98.00
17887;DHT22;9069;52.044;7.472;2023-04-09T05:48:55;8.80;98.10
17887;DHT22;9069;52.044;7.472;2023-04-09T05:51:24;8.80;98.20
17887;DHT22;9069;52.044;7.472;2023-04-09T05:53:51;8.80;98.30
17887;DHT22;9069;52.044;7.472;2023-04-09T05:56:18;8.90;98.40
17887;DHT22;9069;52.044;7.472;2023-04-09T05:58:54;8.90;98.40
17887;DHT22;9069;52.044;7.472;2023-04-09T06:01:21;8.90;98.40
17887;DHT22;9069;52.044;7.472;2023-04-09T06:03:48;8.90;98.50
17887;DHT22;9069;52.044;7.472;2023-04-09T06:06:15;8.90;98.60
17887;DHT22;9069;52.044;7.472;2023-04-09T06:08:42;9.00;98.70
17887;DHT22;9069;52.044;7.472;2023-04-09T06:11:10;9.00;98.70
17887;DHT22;9069;52.044;7.472;2023-04-09T06:13:37;9.00;98.80
17887;DHT22;9069;52.044;7.472;2023-04-09T06:16:05;9.10;98.90
17887;DHT22;9069;52.044;7.472;2023-04-09T06:18:33;9.10;98.90
17887;DHT22;9069;52.044;7.472;2023-04-09T06:21:07;9.10;98.90
17887;DHT22;9069;52.044;7.472;2023-04-09T06:23:35;9.20;99.10
17887;DHT22;9069;52.044;7.472;2023-04-09T06:26:02;9.20;99.00
17887;DHT22;9069;52.044;7.472;2023-04-09T06:28:29;9.30;99.00
17887;DHT22;9069;52.044;7.472;2023-04-09T06:30:57;9.30;99.10
17887;DHT22;9069;52.044;7.472;2023-04-09T06:33:24;9.30;99.20
17887;DHT22;9069;52.044;7.472;2023-04-09T06:35:51;9.40;99.20
17887;DHT22;9069;52.044;7.472;2023-04-09T06:38:18;9.40;99.40
17887;DHT22;9069;52.044;7.472;2023-04-09T06:40:45;9.50;99.80
17887;DHT22;9069;52.044;7.472;2023-04-09T06:43:12;9.60;99.80
17887;DHT22;9069;52.044;7.472;2023-04-09T06:45:49;9.70;99.90
17887;DHT22;9069;52.044;7.472;2023-04-09T06:48:17;9.80;99.90
17887;DHT22;9069;52.044;7.472;2023-04-09T06:50:44;10.00;99.90
17887;DHT22;9069;52.044;7.472;2023-04-09T06:53:11;10.20;99.90
17887;DHT22;9069;52.044;7.472;2023-04-09T06:55:38;10.40;99.90
17887;DHT22;9069;52.044;7.472;2023-04-09T06:58:04;10.60;99.90
17887;DHT22;9069;52.044;7.472;2023-04-09T07:00:31;10.80;99.90
17887;DHT22;9069;52.044;7.472;2023-04-09T07:02:58;11.00;99.90
17887;DHT22;9069;52.044;7.472;2023-04-09T07:05:25;11.30;99.90
17887;DHT22;9069;52.044;7.472;2023-04-09T07:07:51;11.60;99.90
17887;DHT22;9069;52.044;7.472;2023-04-09T07:10:18;11.80;99.90
17887;DHT22;9069;52.044;7.472;2023-04-09T07:12:45;12.10;99.90
17887;DHT22;9069;52.044;7.472;2023-04-09T07:15:12;12.50;99.90
17887;DHT22;9069;52.044;7.472;2023-04-09T07:17:38;12.80;99.90
17887;DHT22;9069;52.044;7.472;2023-04-09T07:20:05;13.10;99.60
17887;DHT22;9069;52.044;7.472;2023-04-09T07:22:32;13.50;99.40
17887;DHT22;9069;52.044;7.472;2023-04-09T07:24:59;13.80;99.30
17887;DHT22;9069;52.044;7.472;2023-04-09T07:27:26;14.20;99.40
17887;DHT22;9069;52.044;7.472;2023-04-09T07:29:58;14.60;98.70
17887;DHT22;9069;52.044;7.472;2023-04-09T07:32:26;14.90;98.20
17887;DHT22;9069;52.044;7.472;2023-04-09T07:34:54;15.30;98.10
17887;DHT22;9069;52.044;7.472;2023-04-09T07:37:21;15.70;98.10
17887;DHT22;9069;52.044;7.472;2023-04-09T07:39:48;16.00;98.10
17887;DHT22;9069;52.044;7.472;2023-04-09T07:42:17;16.30;97.50
17887;DHT22;9069;52.044;7.472;2023-04-09T07:44:43;16.60;97.20
17887;DHT22;9069;52.044;7.472;2023-04-09T07:47:10;17.00;96.90
17887;DHT22;9069;52.044;7.472;2023-04-09T07:49:38;17.30;96.50
17887;DHT22;9069;52.044;7.472;2023-04-09T07:52:05;17.60;95.80
17887;DHT22;9069;52.044;7.472;2023-04-09T07:54:33;17.90;95.40
17887;DHT22;9069;52.044;7.472;2023-04-09T07:57:00;18.30;94.70
17887;DHT22;9069;52.044;7.472;2023-04-09T07:59:27;18.60;94.70
17887;DHT22;9069;52.044;7.472;2023-04-09T08:01:55;18.90;94.20
17887;DHT22;9069;52.044;7.472;2023-04-09T08:04:21;19.20;93.60
17887;DHT22;9069;52.044;7.472;2023-04-09T08:06:48;19.50;93.20
17887;DHT22;9069;52.044;7.472;2023-04-09T08:09:17;19.80;92.60
17887;DHT22;9069;52.044;7.472;2023-04-09T08:11:44;20.10;91.70
17887;DHT22;9069;52.044;7.472;2023-04-09T08:14:11;20.40;91.40
17887;DHT22;9069;52.044;7.472;2023-04-09T08:16:43;20.80;90.60
17887;DHT22;9069;52.044;7.472;2023-04-09T08:19:10;21.10;84.70
17887;DHT22;9069;52.044;7.472;2023-04-09T08:21:38;21.40;86.10
17887;DHT22;9069;52.044;7.472;2023-04-09T08:24:05;21.70;83.90
17887;DHT22;9069;52.044;7.472;2023-04-09T08:26:33;22.00;82.80
17887;DHT22;9069;52.044;7.472;2023-04-09T08:29:00;22.30;82.50
17887;DHT22;9069;52.044;7.472;2023-04-09T08:31:27;22.60;80.50
17887;DHT22;9069;52.044;7.472;2023-04-09T08:33:53;22.90;79.40
17887;DHT22;9069;52.044;7.472;2023-04-09T08:36:20;23.20;76.60
17887;DHT22;9069;52.044;7.472;2023-04-09T08:38:47;23.50;74.30
17887;DHT22;9069;52.044;7.472;2023-04-09T08:41:25;23.80;72.80
17887;DHT22;9069;52.044;7.472;2023-04-09T08:43:54;24.00;68.20
17887;DHT22;9069;52.044;7.472;2023-04-09T08:46:25;24.30;69.50
17887;DHT22;9069;52.044;7.472;2023-04-09T08:48:53;24.50;68.80
17887;DHT22;9069;52.044;7.472;2023-04-09T08:51:22;24.70;67.00
17887;DHT22;9069;52.044;7.472;2023-04-09T08:53:58;24.90;65.80
17887;DHT22;9069;52.044;7.472;2023-04-09T08:56:28;25.20;61.90
17887;DHT22;9069;52.044;7.472;2023-04-09T08:58:55;25.30;63.40
17887;DHT22;9069;52.044;7.472;2023-04-09T09:01:29;25.40;61.90
17887;DHT22;9069;52.044;7.472;2023-04-09T09:03:57;25.50;61.40
17887;DHT22;9069;52.044;7.472;2023-04-09T09:06:29;25.60;61.30
17887;DHT22;9069;52.044;7.472;2023-04-09T09:09:06;25.60;59.30
17887;DHT22;9069;52.044;7.472;2023-04-09T09:11:34;25.70;60.10
17887;DHT22;9069;52.044;7.472;2023-04-09T09:14:06;25.80;59.70
17887;DHT22;9069;52.044;7.472;2023-04-09T09:16:34;25.80;57.80
17887;DHT22;9069;52.044;7.472;2023-04-09T09:19:02;25.80;57.60
17887;DHT22;9069;52.044;7.472;2023-04-09T09:21:29;25.90;58.00
17887;DHT22;9069;52.044;7.472;2023-04-09T09:23:56;25.90;57.00
17887;DHT22;9069;52.044;7.472;2023-04-09T09:26:28;25.90;57.10
17887;DHT22;9069;52.044;7.472;2023-04-09T09:28:56;25.90;57.00
17887;DHT22;9069;52.044;7.472;2023-04-09T09:31:26;26.00;57.20
17887;DHT22;9069;52.044;7.472;2023-04-09T09:33:53;26.00;57.20
17887;DHT22;9069;52.044;7.472;2023-04-09T09:36:31;26.20;57.00
17887;DHT22;9069;52.044;7.472;2023-04-09T09:38:59;26.20;54.50
17887;DHT22;9069;52.044;7.472;2023-04-09T09:41:29;26.30;56.60
17887;DHT22;9069;52.044;7.472;2023-04-09T09:43:56;26.50;56.50
17887;DHT22;9069;52.044;7.472;2023-04-09T09:46:24;26.50;55.70
17887;DHT22;9069;52.044;7.472;2023-04-09T09:48:51;26.60;55.40
17887;DHT22;9069;52.044;7.472;2023-04-09T09:51:23;26.70;56.00
17887;DHT22;9069;52.044;7.472;2023-04-09T09:53:54;26.80;55.00
17887;DHT22;9069;52.044;7.472;2023-04-09T09:56:24;26.90;54.80
17887;DHT22;9069;52.044;7.472;2023-04-09T09:59:20;27.00;54.00
17887;DHT22;9069;52.044;7.472;2023-04-09T10:01:53;27.20;52.50
17887;DHT22;9069;52.044;7.472;2023-04-09T10:04:23;27.30;52.10
17887;DHT22;9069;52.044;7.472;2023-04-09T10:06:51;27.30;53.50
17887;DHT22;9069;52.044;7.472;2023-04-09T10:09:20;27.40;53.70
17887;DHT22;9069;52.044;7.472;2023-04-09T10:11:47;27.50;52.90
17887;DHT22;9069;52.044;7.472;2023-04-09T10:14:16;27.60;53.30
17887;DHT22;9069;52.044;7.472;2023-04-09T10:16:45;27.70;51.90
17887;DHT22;9069;52.044;7.472;2023-04-09T10:19:12;27.90;51.80
17887;DHT22;9069;52.044;7.472;2023-04-09T10:21:51;28.00;51.50
17887;DHT22;9069;52.044;7.472;2023-04-09T10:24:20;28.20;49.60
17887;DHT22;9069;52.044;7.472;2023-04-09T10:26:47;28.30;51.80
17887;DHT22;9069;52.044;7.472;2023-04-09T10:29:15;28.40;51.70
17887;DHT22;9069;52.044;7.472;2023-04-09T10:31:54;28.40;50.80
17887;DHT22;9069;52.044;7.472;2023-04-09T10:34:28;28.50;49.00
17887;DHT22;9069;52.044;7.472;2023-04-09T10:36:56;28.50;48.90
17887;DHT22;9069;52.044;7.472;2023-04-09T10:39:30;28.40;47.00
17887;DHT22;9069;52.044;7.472;2023-04-09T10:42:02;28.10;46.40
17887;DHT22;9069;52.044;7.472;2023-04-09T10:44:32;27.80;46.70
17887;DHT22;9069;52.044;7.472;2023-04-09T10:47:02;27.40;47.20
17887;DHT22;9069;52.044;7.472;2023-04-09T10:49:35;27.00;46.80
17887;DHT22;9069;52.044;7.472;2023-04-09T10:52:10;26.70;46.80
17887;DHT22;9069;52.044;7.472;2023-04-09T10:54:43;26.40;46.50
17887;DHT22;9069;52.044;7.472;2023-04-09T10:57:15;26.00;47.20
17887;DHT22;9069;52.044;7.472;2023-04-09T10:59:48;25.70;47.50
17887;DHT22;9069;52.044;7.472;2023-04-09T11:05:21;25.10;47.50
17887;DHT22;9069;52.044;7.472;2023-04-09T11:08:06;24.80;48.20
17887;DHT22;9069;52.044;7.472;2023-04-09T11:10:36;24.60;48.40
17887;DHT22;9069;52.044;7.472;2023-04-09T11:13:04;24.30;49.10
17887;DHT22;9069;52.044;7.472;2023-04-09T11:15:33;24.20;49.60
17887;DHT22;9069;52.044;7.472;2023-04-09T11:18:00;23.90;49.70
17887;DHT22;9069;52.044;7.472;2023-04-09T11:20:28;23.70;50.30
17887;DHT22;9069;52.044;7.472;2023-04-09T11:22:58;23.50;50.30
17887;DHT22;9069;52.044;7.472;2023-04-09T11:25:27;23.30;49.20
17887;DHT22;9069;52.044;7.472;2023-04-09T11:27:54;23.30;49.90
17887;DHT22;9069;52.044;7.472;2023-04-09T11:30:21;23.10;50.50
17887;DHT22;9069;52.044;7.472;2023-04-09T11:32:49;22.90;51.00
17887;DHT22;9069;52.044;7.472;2023-04-09T11:35:21;23.00;51.30
17887;DHT22;9069;52.044;7.472;2023-04-09T11:37:48;22.80;51.30
17887;DHT22;9069;52.044;7.472;2023-04-09T11:40:20;22.70;51.00
17887;DHT22;9069;52.044;7.472;2023-04-09T11:42:51;22.70;50.30
17887;DHT22;9069;52.044;7.472;2023-04-09T11:45:21;22.50;50.00
17887;DHT22;9069;52.044;7.472;2023-04-09T11:47:48;22.40;50.70
17887;DHT22;9069;52.044;7.472;2023-04-09T11:50:15;22.30;50.70
17887;DHT22;9069;52.044;7.472;2023-04-09T11:52:44;22.20;50.60
17887;DHT22;9069;52.044;7.472;2023-04-09T11:55:12;22.20;50.10
17887;DHT22;9069;52.044;7.472;2023-04-09T11:57:48;22.00;50.40
17887;DHT22;9069;52.044;7.472;2023-04-09T12:00:16;21.90;50.70
17887;DHT22;9069;52.044;7.472;2023-04-09T12:02:45;21.80;51.20
17887;DHT22;9069;52.044;7.472;2023-04-09T12:05:21;21.80;51.70
17887;DHT22;9069;52.044;7.472;2023-04-09T12:07:48;21.70;51.40
17887;DHT22;9069;52.044;7.472;2023-04-09T12:10:29;21.70;52.00
17887;DHT22;9069;52.044;7.472;2023-04-09T12:13:06;21.70;51.60
17887;DHT22;9069;52.044;7.472;2023-04-09T12:15:35;21.60;50.70
17887;DHT22;9069;52.044;7.472;2023-04-09T12:18:06;21.50;51.20
17887;DHT22;9069;52.044;7.472;2023-04-09T12:20:35;21.40;51.40
17887;DHT22;9069;52.044;7.472;2023-04-09T12:23:03;21.30;52.10
17887;DHT22;9069;52.044;7.472;2023-04-09T12:25:40;21.30;52.10
17887;DHT22;9069;52.044;7.472;2023-04-09T12:28:10;21.20;52.10
17887;DHT22;9069;52.044;7.472;2023-04-09T12:30:37;21.20;52.30
17887;DHT22;9069;52.044;7.472;2023-04-09T12:33:04;21.10;51.90
17887;DHT22;9069;52.044;7.472;2023-04-09T12:35:33;21.00;51.90
17887;DHT22;9069;52.044;7.472;2023-04-09T12:38:01;21.00;52.70
17887;DHT22;9069;52.044;7.472;2023-04-09T12:40:27;20.90;51.90
17887;DHT22;9069;52.044;7.472;2023-04-09T12:42:54;20.80;51.90
17887;DHT22;9069;52.044;7.472;2023-04-09T12:45:21;20.70;52.20
17887;DHT22;9069;52.044;7.472;2023-04-09T12:47:48;20.70;51.90
17887;DHT22;9069;52.044;7.472;2023-04-09T12:50:15;20.60;52.40
17887;DHT22;9069;52.044;7.472;2023-04-09T12:52:43;20.50;52.30
17887;DHT22;9069;52.044;7.472;2023-04-09T12:55:10;20.40;52.50
17887;DHT22;9069;52.044;7.472;2023-04-09T12:57:38;20.30;52.40
17887;DHT22;9069;52.044;7.472;2023-04-09T13:00:06;20.20;52.50
17887;DHT22;9069;52.044;7.472;2023-04-09T13:02:33;20.20;52.40
17887;DHT22;9069;52.044;7.472;2023-04-09T13:05:00;20.10;52.60
17887;DHT22;9069;52.044;7.472;2023-04-09T13:07:27;20.00;52.80
17887;DHT22;9069;52.044;7.472;2023-04-09T13:09:55;20.00;53.40
17887;DHT22;9069;52.044;7.472;2023-04-09T13:12:23;19.90;53.50
17887;DHT22;9069;52.044;7.472;2023-04-09T13:14:52;19.90;53.50
17887;DHT22;9069;52.044;7.472;2023-04-09T13:17:19;19.90;53.50
17887;DHT22;9069;52.044;7.472;2023-04-09T13:19:46;19.90;53.80
17887;DHT22;9069;52.044;7.472;2023-04-09T13:22:13;19.80;53.80
17887;DHT22;9069;52.044;7.472;2023-04-09T13:24:40;19.80;53.60
17887;DHT22;9069;52.044;7.472;2023-04-09T13:27:09;19.80;53.70
17887;DHT22;9069;52.044;7.472;2023-04-09T13:29:36;19.90;53.70
17887;DHT22;9069;52.044;7.472;2023-04-09T13:32:03;19.80;53.70
17887;DHT22;9069;52.044;7.472;2023-04-09T13:34:33;19.80;53.60
17887;DHT22;9069;52.044;7.472;2023-04-09T13:37:03;19.80;53.50
17887;DHT22;9069;52.044;7.472;2023-04-09T13:39:30;19.80;53.40
17887;DHT22;9069;52.044;7.472;2023-04-09T13:41:57;19.80;53.50
17887;DHT22;9069;52.044;7.472;2023-04-09T13:44:25;19.70;53.70
17887;DHT22;9069;52.044;7.472;2023-04-09T13:46:52;19.70;53.70
17887;DHT22;9069;52.044;7.472;2023-04-09T13:49:19;19.60;53.80
17887;DHT22;9069;52.044;7.472;2023-04-09T13:51:48;19.50;53.90
17887;DHT22;9069;52.044;7.472;2023-04-09T13:54:15;19.50;53.80
17887;DHT22;9069;52.044;7.472;2023-04-09T13:56:43;19.50;53.40
17887;DHT22;9069;52.044;7.472;2023-04-09T13:59:10;19.40;53.30
17887;DHT22;9069;52.044;7.472;2023-04-09T14:01:37;19.40;53.50
17887;DHT22;9069;52.044;7.472;2023-04-09T14:04:04;19.40;53.70
17887;DHT22;9069;52.044;7.472;2023-04-09T14:06:30;19.40;53.90
17887;DHT22;9069;52.044;7.472;2023-04-09T14:08:57;19.40;54.10
17887;DHT22;9069;52.044;7.472;2023-04-09T14:11:24;19.50;54.30
17887;DHT22;9069;52.044;7.472;2023-04-09T14:13:50;19.50;54.40
17887;DHT22;9069;52.044;7.472;2023-04-09T14:16:18;19.60;54.20
17887;DHT22;9069;52.044;7.472;2023-04-09T14:18:45;19.60;53.80
17887;DHT22;9069;52.044;7.472;2023-04-09T14:21:11;19.60;54.20
17887;DHT22;9069;52.044;7.472;2023-04-09T14:23:38;19.60;53.70
17887;DHT22;9069;52.044;7.472;2023-04-09T14:26:05;19.60;53.40
17887;DHT22;9069;52.044;7.472;2023-04-09T14:28:32;19.60;53.60
17887;DHT22;9069;52.044;7.472;2023-04-09T14:30:59;19.60;54.00
17887;DHT22;9069;52.044;7.472;2023-04-09T14:33:26;19.50;54.20
17887;DHT22;9069;52.044;7.472;2023-04-09T14:35:53;19.50;54.00
17887;DHT22;9069;52.044;7.472;2023-04-09T14:38:20;19.50;53.80
17887;DHT22;9069;52.044;7.472;2023-04-09T14:40:50;19.50;53.80
17887;DHT22;9069;52.044;7.472;2023-04-09T14:43:16;19.50;54.00
17887;DHT22;9069;52.044;7.472;2023-04-09T14:45:43;19.50;54.20
17887;DHT22;9069;52.044;7.472;2023-04-09T14:48:10;19.50;54.50
17887;DHT22;9069;52.044;7.472;2023-04-09T14:50:37;19.50;54.20
17887;DHT22;9069;52.044;7.472;2023-04-09T14:53:03;19.50;54.10
17887;DHT22;9069;52.044;7.472;2023-04-09T14:55:30;19.50;54.10
17887;DHT22;9069;52.044;7.472;2023-04-09T14:57:58;19.50;54.20
17887;DHT22;9069;52.044;7.472;2023-04-09T15:00:25;19.50;54.00
17887;DHT22;9069;52.044;7.472;2023-04-09T15:02:52;19.50;54.10
17887;DHT22;9069;52.044;7.472;2023-04-09T15:05:19;19.50;54.10
17887;DHT22;9069;52.044;7.472;2023-04-09T15:07:46;19.50;54.10
17887;DHT22;9069;52.044;7.472;2023-04-09T15:10:12;19.50;54.00
17887;DHT22;9069;52.044;7.472;2023-04-09T15:12:39;19.50;53.60
17887;DHT22;9069;52.044;7.472;2023-04-09T15:15:07;19.50;53.50
17887;DHT22;9069;52.044;7.472;2023-04-09T15:17:34;19.50;53.40
17887;DHT22;9069;52.044;7.472;2023-04-09T15:20:02;19.40;53.70
17887;DHT22;9069;52.044;7.472;2023-04-09T15:22:29;19.40;53.90
17887;DHT22;9069;52.044;7.472;2023-04-09T15:24:56;19.40;54.00
17887;DHT22;9069;52.044;7.472;2023-04-09T15:27:23;19.30;53.60
17887;DHT22;9069;52.044;7.472;2023-04-09T15:29:50;19.40;53.90
17887;DHT22;9069;52.044;7.472;2023-04-09T15:32:17;19.30;53.90
17887;DHT22;9069;52.044;7.472;2023-04-09T15:34:44;19.30;53.90
17887;DHT22;9069;52.044;7.472;2023-04-09T15:37:11;19.20;53.90
17887;DHT22;9069;52.044;7.472;2023-04-09T15:39:38;19.30;54.00
17887;DHT22;9069;52.044;7.472;2023-04-09T15:42:04;19.20;53.90
17887;DHT22;9069;52.044;7.472;2023-04-09T15:44:35;19.20;54.00
17887;DHT22;9069;52.044;7.472;2023-04-09T15:47:01;19.10;53.90
17887;DHT22;9069;52.044;7.472;2023-04-09T15:49:28;19.10;53.80
17887;DHT22;9069;52.044;7.472;2023-04-09T15:51:55;19.00;53.60
17887;DHT22;9069;52.044;7.472;2023-04-09T15:54:22;19.00;53.70
17887;DHT22;9069;52.044;7.472;2023-04-09T15:56:48;18.90;53.90
17887;DHT22;9069;52.044;7.472;2023-04-09T15:59:15;18.90;54.10
17887;DHT22;9069;52.044;7.472;2023-04-09T16:01:42;18.90;54.10
17887;DHT22;9069;52.044;7.472;2023-04-09T16:04:09;18.80;54.10
17887;DHT22;9069;52.044;7.472;2023-04-09T16:06:37;18.80;53.90
17887;DHT22;9069;52.044;7.472;2023-04-09T16:09:04;18.70;54.20
17887;DHT22;9069;52.044;7.472;2023-04-09T16:11:31;18.70;54.20